createdAt,value
2024-02-11T00:02:34.324Z,16.388
2024-02-11T00:07:41.239Z,16.4692
2024-02-11T00:12:47.980Z,16.871
2024-02-11T00:17:54.575Z,14.3158
2024-02-11T00:23:01.534Z,14.0326
2024-02-11T00:28:08.346Z,13.3594
2024-02-11T00:33:15.496Z,12.369
2024-02-11T00:38:21.855Z,12.5683
2024-02-11T00:43:28.378Z,13.2291
2024-02-11T00:48:35.065Z,13.0793
2024-02-11T00:53:42.322Z,12.1872
2024-02-11T00:58:48.852Z,12.4972
2024-02-11T01:03:55.711Z,13.5028
2024-02-11T01:09:02.286Z,13.9108
2024-02-11T01:14:09.533Z,13.1435
2024-02-11T01:19:15.995Z,14.248
2024-02-11T01:24:23.324Z,13.3304
2024-02-11T01:29:29.298Z,11.96
2024-02-11T01:34:36.361Z,13.2393
2024-02-11T01:39:42.830Z,14.6253
2024-02-11T01:44:49.547Z,14.6526
2024-02-11T01:49:56.622Z,14.1891
2024-02-11T01:55:03.581Z,13.3271
2024-02-11T02:00:10.364Z,13.8066
2024-02-11T02:05:17.275Z,14.2228
2024-02-11T02:10:23.610Z,14.5472
2024-02-11T02:15:30.720Z,14.7092
2024-02-11T02:20:37.244Z,13.7766
2024-02-11T02:25:44.213Z,14.0122
2024-02-11T02:30:51.056Z,13.6097
2024-02-11T02:35:58.102Z,12.8505
2024-02-11T02:41:04.439Z,12.8059
2024-02-11T02:46:11.101Z,13.4742
2024-02-11T02:51:17.938Z,16.5869
2024-02-11T02:56:24.672Z,15.5184
2024-02-11T03:01:31.524Z,14.643
2024-02-11T03:06:38.311Z,14.1808
2024-02-11T03:11:45.029Z,14.2521
2024-02-11T03:16:52.236Z,14.7674
2024-02-11T03:21:58.653Z,14.8218
2024-02-11T03:27:05.320Z,14.5301
2024-02-11T03:32:12.135Z,13.7191
2024-02-11T03:37:18.868Z,12.8982
2024-02-11T03:42:25.701Z,9.4389
2024-02-11T03:47:32.500Z,5.9488
2024-02-11T03:52:39.011Z,7.1222
2024-02-11T03:57:46.044Z,6.1339
2024-02-11T04:02:52.455Z,2.0238
2024-02-11T04:07:59.235Z,1.1796
2024-02-11T04:13:05.784Z,0.8312
2024-02-11T04:18:12.817Z,0.8123
2024-02-11T04:23:19.087Z,0.825
2024-02-11T04:28:25.723Z,0.622
2024-02-11T04:33:32.342Z,0.8045
2024-02-11T04:38:39.162Z,0.6554
2024-02-11T04:43:45.765Z,0.8226
2024-02-11T04:48:52.711Z,0.7299
2024-02-11T04:53:59.474Z,0.9935
2024-02-11T04:59:06.514Z,0.9282
2024-02-11T05:04:13.233Z,0.7814
2024-02-11T05:09:19.774Z,1.0814
2024-02-11T05:14:26.606Z,0.9244
2024-02-11T05:19:33.637Z,1.3097
2024-02-11T05:24:40.161Z,1.3726
2024-02-11T05:29:46.803Z,1.2995
2024-02-11T05:34:53.802Z,1.5373
2024-02-11T05:40:00.547Z,1.7401
2024-02-11T05:45:07.511Z,2.244
2024-02-11T05:50:14.248Z,2.1614
2024-02-11T05:55:21.008Z,2.405
2024-02-11T06:00:28.069Z,2.5474
2024-02-11T06:05:34.872Z,1.8229
2024-02-11T06:10:41.676Z,1.9368
2024-02-11T06:15:47.896Z,1.7888
2024-02-11T06:20:54.372Z,2.1736
2024-02-11T06:26:01.122Z,2.5791
2024-02-11T06:31:08.092Z,3.1273
2024-02-11T06:36:17.230Z,3.7016
2024-02-11T06:41:24.069Z,4.435
2024-02-11T06:46:30.612Z,4.2895
2024-02-11T06:51:37.001Z,3.9174
2024-02-11T06:56:43.802Z,4.1224
2024-02-11T07:01:50.568Z,3.7643
2024-02-11T07:06:57.202Z,4.2002
2024-02-11T07:12:03.919Z,3.6777
2024-02-11T07:17:10.852Z,4.1076
2024-02-11T07:22:17.452Z,3.7429
2024-02-11T07:27:23.863Z,4.3559
2024-02-11T07:32:31.082Z,4.1873
2024-02-11T07:37:37.784Z,3.7929
2024-02-11T07:42:44.496Z,3.8731
2024-02-11T07:47:51.336Z,3.8866
2024-02-11T07:52:58.160Z,4.0095
2024-02-11T07:58:05.149Z,3.2038
2024-02-11T08:03:11.880Z,4.051
2024-02-11T08:08:18.710Z,3.3988
2024-02-11T08:13:25.299Z,3.5994
2024-02-11T08:18:32.007Z,3.9721
2024-02-11T08:23:38.295Z,3.4674
2024-02-11T08:28:44.829Z,4.2588
2024-02-11T08:33:52.073Z,3.7903
2024-02-11T08:38:58.512Z,4.5036
2024-02-11T08:44:06.375Z,5.3938
2024-02-11T08:49:12.212Z,3.8291
2024-02-11T08:54:18.909Z,4.6443
2024-02-11T08:59:25.671Z,4.5703
2024-02-11T09:04:32.495Z,3.729
2024-02-11T09:09:39.011Z,4.325
2024-02-11T09:14:46.000Z,4.1711
2024-02-11T09:19:52.872Z,4.5814
2024-02-11T09:24:59.854Z,4.207
2024-02-11T09:30:06.620Z,4.0077
2024-02-11T09:35:13.259Z,3.967
2024-02-11T09:40:20.253Z,5.8459
2024-02-11T09:45:26.687Z,9.7244
2024-02-11T09:50:33.109Z,4.7599
2024-02-11T09:55:39.641Z,5.4834
2024-02-11T10:00:46.372Z,4.4858
2024-02-11T10:05:53.371Z,3.7241
2024-02-11T10:10:59.737Z,4.3477
2024-02-11T10:16:06.785Z,4.2779
2024-02-11T10:21:13.532Z,4.308
2024-02-11T10:26:20.767Z,3.906
2024-02-11T10:31:27.367Z,3.7646
2024-02-11T10:36:34.411Z,3.749
2024-02-11T10:41:41.368Z,3.9606
2024-02-11T10:46:48.459Z,3.3552
2024-02-11T10:51:55.265Z,3.8153
2024-02-11T10:57:02.294Z,4.0286
2024-02-11T11:02:09.303Z,4.0233
2024-02-11T11:07:16.109Z,3.6387
2024-02-11T11:12:23.079Z,3.1205
2024-02-11T11:17:30.012Z,2.647
2024-02-11T11:22:36.879Z,3.2513
2024-02-11T11:27:43.554Z,3.7894
2024-02-11T11:32:50.376Z,3.151
2024-02-11T11:37:57.111Z,3.1732
2024-02-11T11:43:03.806Z,3.1705
2024-02-11T11:48:11.183Z,3.4426
2024-02-11T11:53:17.626Z,2.6777
2024-02-11T11:58:24.544Z,2.8322
2024-02-11T12:03:31.623Z,2.9304
2024-02-11T12:08:39.196Z,2.5177
2024-02-11T12:13:45.067Z,2.2216
2024-02-11T12:18:52.020Z,2.5013
2024-02-11T12:23:58.944Z,2.3523
2024-02-11T12:29:05.973Z,2.2071
2024-02-11T12:34:12.982Z,1.8027
2024-02-11T12:39:19.881Z,2.9569
2024-02-11T12:44:27.140Z,3.0018
2024-02-11T12:49:34.017Z,2.3946
2024-02-11T12:54:40.586Z,2.5346
2024-02-11T12:59:47.153Z,2.635
2024-02-11T13:04:54.068Z,2.9182
2024-02-11T13:10:00.928Z,2.5566
2024-02-11T13:15:07.521Z,2.4442
2024-02-11T13:20:14.321Z,2.6155
2024-02-11T13:25:21.059Z,2.2605
2024-02-11T13:30:28.115Z,2.5812
2024-02-11T13:35:35.061Z,2.4272
2024-02-11T13:40:41.798Z,2.2314
2024-02-11T13:45:48.844Z,1.9627
2024-02-11T13:50:55.576Z,2.6898
2024-02-11T13:56:02.323Z,1.9739
2024-02-11T14:01:08.913Z,2.2116
2024-02-11T14:06:16.656Z,2.0866
2024-02-11T14:11:22.824Z,2.5541
2024-02-11T14:16:29.724Z,2.5527
2024-02-11T14:21:36.526Z,2.4051
2024-02-11T14:26:43.345Z,2.3911
2024-02-11T14:31:50.571Z,1.8368
2024-02-11T14:36:56.985Z,1.6185
2024-02-11T14:42:03.847Z,1.9048
2024-02-11T14:47:10.886Z,1.8104
2024-02-11T14:52:17.291Z,1.8051
2024-02-11T14:57:24.045Z,2.0349
2024-02-11T15:02:30.829Z,2.0612
2024-02-11T15:07:37.560Z,2.1291
2024-02-11T15:12:44.086Z,2.1636
2024-02-11T15:17:50.759Z,2.2323
2024-02-11T15:22:57.347Z,2.2839
2024-02-11T15:28:04.016Z,1.8673
2024-02-11T15:33:11.052Z,1.933
2024-02-11T15:38:17.886Z,2.3679
2024-02-11T15:43:24.906Z,1.9293
2024-02-11T15:48:31.868Z,2.2761
2024-02-11T15:53:38.680Z,1.9123
2024-02-11T15:58:45.357Z,2.2019
2024-02-11T16:03:52.044Z,2.1507
2024-02-11T16:08:58.821Z,2.2115
2024-02-11T16:14:05.744Z,1.9203
2024-02-11T16:19:12.584Z,2.5134
2024-02-11T16:24:19.264Z,1.9711
2024-02-11T16:29:26.407Z,2.7061
2024-02-11T16:34:33.136Z,2.2099
2024-02-11T16:39:39.847Z,2.4115
2024-02-11T16:44:46.825Z,2.6601
2024-02-11T16:49:53.881Z,3.179
2024-02-11T16:55:00.876Z,2.7778
2024-02-11T17:00:07.530Z,2.4012
2024-02-11T17:05:14.455Z,2.876
2024-02-11T17:10:21.177Z,2.7379
2024-02-11T17:15:27.787Z,2.0502
2024-02-11T17:20:34.473Z,2.4713
2024-02-11T17:25:40.797Z,1.8862
2024-02-11T17:30:47.481Z,1.8259
2024-02-11T17:35:54.316Z,1.692
2024-02-11T17:41:01.166Z,1.4394
2024-02-11T17:46:08.178Z,3.3572
2024-02-11T17:51:15.282Z,2.4211
2024-02-11T17:56:22.232Z,2.3907
2024-02-11T18:01:28.841Z,1.6152
2024-02-11T18:06:35.709Z,1.801
2024-02-11T18:11:42.718Z,2.1785
2024-02-11T18:16:49.595Z,2.8202
2024-02-11T18:21:55.825Z,3.2826
2024-02-11T18:27:02.654Z,3.6671
2024-02-11T18:32:09.547Z,2.6554
2024-02-11T18:37:16.182Z,2.597
2024-02-11T18:42:23.015Z,2.1508
2024-02-11T18:47:30.005Z,1.9102
2024-02-11T18:52:36.953Z,1.669
2024-02-11T18:57:43.713Z,1.6542
2024-02-11T19:02:50.484Z,1.9805
2024-02-11T19:07:57.336Z,1.6718
2024-02-11T19:13:04.030Z,1.6728
2024-02-11T19:18:13.327Z,1.7248
2024-02-11T19:23:17.630Z,1.6188
2024-02-11T19:28:24.239Z,1.5783
2024-02-11T19:33:30.904Z,1.7016
2024-02-11T19:38:37.464Z,1.6764
2024-02-11T19:43:44.315Z,1.5149
2024-02-11T19:48:51.376Z,0.9294
2024-02-11T19:53:58.161Z,1.382
2024-02-11T19:59:05.169Z,1.7629
2024-02-11T20:04:11.762Z,1.3932
2024-02-11T20:09:18.639Z,1.594
2024-02-11T20:14:25.329Z,1.3415
2024-02-11T20:19:32.213Z,1.6097
2024-02-11T20:24:39.072Z,1.553
2024-02-11T20:29:45.740Z,1.6144
2024-02-11T20:34:52.522Z,1.9105
2024-02-11T20:39:59.270Z,1.3714
2024-02-11T20:45:05.659Z,1.4099
2024-02-11T20:50:12.566Z,0.9913
2024-02-11T20:55:19.314Z,1.1041
2024-02-11T21:00:26.076Z,1.1299
2024-02-11T21:05:32.896Z,1.4186
2024-02-11T21:10:39.746Z,1.1312
2024-02-11T21:15:46.579Z,1.0382
2024-02-11T21:21:01.461Z,0.679
2024-02-11T21:26:00.337Z,0.8128
2024-02-11T21:31:20.871Z,0.602
2024-02-11T21:36:13.914Z,0.9002
2024-02-11T21:41:20.458Z,0.8795
2024-02-11T21:46:27.210Z,1.3839
2024-02-11T21:51:33.831Z,1.4688
2024-02-11T21:56:40.642Z,1.458
2024-02-11T22:01:47.204Z,1.1301
2024-02-11T22:06:53.940Z,0.9754
2024-02-11T22:12:00.623Z,1.1042
2024-02-11T22:17:07.465Z,1.1511
2024-02-11T22:22:14.316Z,1.0534
2024-02-11T22:27:21.271Z,0.8948
2024-02-11T22:32:28.228Z,0.9917
2024-02-11T22:37:34.734Z,1.3426
2024-02-11T22:42:41.826Z,0.7064
2024-02-11T22:47:48.394Z,0.6648
2024-02-11T22:52:55.028Z,0.9976
2024-02-11T22:58:01.852Z,0.6418
2024-02-11T23:03:08.911Z,0.5796
2024-02-11T23:08:15.555Z,0.5748
2024-02-11T23:13:22.023Z,0.4719
2024-02-11T23:18:29.087Z,0.5897
2024-02-11T23:23:35.943Z,0.7845
2024-02-11T23:28:42.670Z,0.7792
2024-02-11T23:33:50.176Z,0.5587
2024-02-11T23:38:56.377Z,0.8656
2024-02-11T23:44:03.340Z,0.8835
2024-02-11T23:49:10.152Z,0.6679
2024-02-11T23:54:17.553Z,0.8921
2024-02-11T23:59:23.728Z,0.4811
